createdAt,value
2018-12-09T00:00:09.250Z,986.87
2018-12-09T00:01:09.285Z,986.77
2018-12-09T00:02:10.233Z,986.74
2018-12-09T00:03:07.424Z,986.77
2018-12-09T00:04:07.362Z,986.71
2018-12-09T00:05:09.776Z,986.71
2018-12-09T00:06:09.264Z,986.65
2018-12-09T00:07:12.286Z,986.61
2018-12-09T00:08:09.223Z,986.58
2018-12-09T00:09:10.286Z,986.46
2018-12-09T00:10:09.265Z,986.46
2018-12-09T00:11:07.324Z,986.44
2018-12-09T00:12:59.120Z,986.45
2018-12-09T00:14:00.876Z,986.38
2018-12-09T00:15:02.835Z,986.23
2018-12-09T00:16:00.883Z,986.37
2018-12-09T00:17:00.904Z,986.33
2018-12-09T00:18:00.047Z,986.30
2018-12-09T00:18:59.067Z,986.17
2018-12-09T00:20:50.880Z,986.15
2018-12-09T00:21:52.498Z,986.14
2018-12-09T00:22:51.640Z,986.07
2018-12-09T00:23:51.650Z,986.10
2018-12-09T00:24:50.817Z,985.92
2018-12-09T00:25:55.347Z,986.08
2018-12-09T00:26:51.720Z,986.01
2018-12-09T00:27:53.303Z,985.88
2018-12-09T00:28:51.615Z,985.85
2018-12-09T00:29:58.675Z,985.86
2018-12-09T00:30:53.683Z,985.85
2018-12-09T00:31:50.740Z,985.74
2018-12-09T00:32:56.183Z,985.81
2018-12-09T00:33:52.691Z,985.85
2018-12-09T00:34:52.842Z,985.80
2018-12-09T00:35:52.639Z,985.67
2018-12-09T00:36:50.699Z,985.67
2018-12-09T00:37:50.673Z,985.74
2018-12-09T00:38:54.136Z,985.58
2018-12-09T00:39:52.187Z,985.59
2018-12-09T00:40:50.655Z,985.53
2018-12-09T00:41:52.188Z,985.49
2018-12-09T00:42:52.121Z,985.50
2018-12-09T00:43:50.819Z,985.42
2018-12-09T00:44:51.146Z,985.47
2018-12-09T00:45:52.153Z,985.33
2018-12-09T00:46:53.168Z,985.39
2018-12-09T00:47:50.588Z,985.41
2018-12-09T00:48:51.133Z,985.31
2018-12-09T00:49:54.139Z,985.27
2018-12-09T00:50:51.612Z,985.30
2018-12-09T00:51:52.265Z,985.29
2018-12-09T00:52:53.114Z,985.25
2018-12-09T00:53:53.154Z,985.30
2018-12-09T00:54:54.189Z,985.22
2018-12-09T00:55:52.122Z,985.16
2018-12-09T00:56:50.477Z,985.16
2018-12-09T00:57:50.470Z,985.14
2018-12-09T00:58:51.136Z,985.14
2018-12-09T00:59:51.193Z,985.04
2018-12-09T01:00:52.193Z,985.04
2018-12-09T01:01:57.162Z,985.10
2018-12-09T01:02:53.123Z,984.92
2018-12-09T01:03:51.154Z,984.95
2018-12-09T01:04:51.467Z,984.88
2018-12-09T01:05:50.363Z,984.93
2018-12-09T01:06:50.431Z,984.86
2018-12-09T01:07:50.336Z,984.85
2018-12-09T01:08:50.372Z,984.80
2018-12-09T01:09:50.312Z,984.66
2018-12-09T01:10:50.313Z,984.57
2018-12-09T01:11:50.290Z,984.49
2018-12-09T01:12:50.313Z,984.50
2018-12-09T01:13:50.288Z,984.41
2018-12-09T01:14:50.275Z,984.53
2018-12-09T01:15:50.275Z,984.55
2018-12-09T01:16:50.377Z,984.49
2018-12-09T01:17:50.233Z,984.54
2018-12-09T01:18:50.423Z,984.41
2018-12-09T01:19:50.214Z,984.32
2018-12-09T01:20:50.208Z,984.35
2018-12-09T01:21:50.218Z,984.33
2018-12-09T01:22:50.182Z,984.28
2018-12-09T01:23:50.216Z,984.35
2018-12-09T01:24:50.165Z,984.14
2018-12-09T01:25:50.180Z,984.23
2018-12-09T01:26:50.133Z,984.17
2018-12-09T01:27:50.145Z,984.15
2018-12-09T01:28:51.109Z,984.16
2018-12-09T01:29:50.125Z,984.16
2018-12-09T01:30:50.607Z,984.10
2018-12-09T01:31:50.096Z,984.07
2018-12-09T01:32:50.081Z,983.95
2018-12-09T01:33:50.055Z,984.03
2018-12-09T01:34:50.045Z,983.95
2018-12-09T01:35:50.061Z,983.89
2018-12-09T01:36:50.027Z,983.98
2018-12-09T01:37:50.016Z,983.90
2018-12-09T01:38:50.004Z,983.82
2018-12-09T01:39:50.058Z,983.90
2018-12-09T01:40:50.083Z,983.83
2018-12-09T01:41:51.016Z,983.82
2018-12-09T01:42:49.972Z,983.85
2018-12-09T01:43:49.986Z,983.93
2018-12-09T01:44:51.649Z,983.86
2018-12-09T01:45:49.940Z,983.84
2018-12-09T01:46:49.917Z,983.80
2018-12-09T01:47:49.925Z,983.65
2018-12-09T01:48:49.889Z,983.67
2018-12-09T01:49:49.892Z,983.69
2018-12-09T01:50:49.872Z,983.62
2018-12-09T01:51:49.914Z,983.67
2018-12-09T01:52:50.609Z,983.70
2018-12-09T01:53:52.611Z,983.60
2018-12-09T01:54:49.886Z,983.72
2018-12-09T01:55:49.855Z,983.74
2018-12-09T01:56:49.805Z,983.62
2018-12-09T01:57:50.613Z,983.64
2018-12-09T01:58:49.787Z,983.57
2018-12-09T01:59:49.770Z,983.52
2018-12-09T02:00:49.764Z,983.45
2018-12-09T02:01:49.788Z,983.48
2018-12-09T02:02:58.662Z,983.43
2018-12-09T02:03:49.748Z,983.43
2018-12-09T02:04:49.749Z,983.34
2018-12-09T02:05:49.726Z,983.30
2018-12-09T02:06:51.165Z,983.37
2018-12-09T02:07:50.604Z,983.34
2018-12-09T02:08:50.616Z,983.37
2018-12-09T02:09:50.648Z,983.34
2018-12-09T02:10:49.689Z,983.28
2018-12-09T02:11:50.661Z,983.26
2018-12-09T02:12:52.128Z,983.19
2018-12-09T02:13:49.633Z,983.20
2018-12-09T02:14:49.626Z,983.24
2018-12-09T02:15:49.612Z,983.19
2018-12-09T02:16:49.602Z,983.23
2018-12-09T02:17:49.603Z,983.23
2018-12-09T02:18:49.636Z,983.14
2018-12-09T02:19:49.550Z,983.03
2018-12-09T02:20:50.542Z,983.04
2018-12-09T02:21:50.161Z,983.11
2018-12-09T02:22:49.562Z,983.10
2018-12-09T02:23:49.522Z,983.07
2018-12-09T02:24:50.107Z,983.04
2018-12-09T02:25:49.493Z,983.05
2018-12-09T02:26:50.128Z,982.99
2018-12-09T02:27:50.123Z,982.99
2018-12-09T02:28:49.461Z,982.99
2018-12-09T02:29:49.439Z,982.88
2018-12-09T02:30:49.451Z,982.91
2018-12-09T02:31:49.419Z,982.94
2018-12-09T02:32:49.418Z,982.95
2018-12-09T02:33:49.438Z,982.86
2018-12-09T02:34:49.395Z,982.92
2018-12-09T02:35:49.400Z,982.81
2018-12-09T02:36:49.369Z,982.82
2018-12-09T02:37:49.374Z,982.77
2018-12-09T02:38:49.348Z,982.78
2018-12-09T02:39:49.344Z,982.77
2018-12-09T02:40:49.329Z,982.78
2018-12-09T02:41:49.333Z,982.67
2018-12-09T02:42:49.321Z,982.72
2018-12-09T02:43:49.298Z,982.74
2018-12-09T02:44:49.291Z,982.71
2018-12-09T02:45:49.271Z,982.68
2018-12-09T02:46:49.293Z,982.64
2018-12-09T02:47:49.255Z,982.64
2018-12-09T02:48:49.266Z,982.66
2018-12-09T02:49:49.334Z,982.64
2018-12-09T02:50:49.244Z,982.60
2018-12-09T02:51:49.229Z,982.60
2018-12-09T02:52:49.232Z,982.62
2018-12-09T02:53:49.185Z,982.52
2018-12-09T02:54:49.184Z,982.51
2018-12-09T02:55:49.170Z,982.48
2018-12-09T02:56:49.163Z,982.43
2018-12-09T02:57:49.160Z,982.46
2018-12-09T02:58:49.148Z,982.28
2018-12-09T02:59:49.142Z,982.34
2018-12-09T03:00:50.323Z,982.32
2018-12-09T03:01:49.105Z,982.31
2018-12-09T03:02:49.105Z,982.24
2018-12-09T03:03:49.617Z,982.43
2018-12-09T03:04:49.064Z,982.35
2018-12-09T03:05:49.066Z,982.34
2018-12-09T03:06:49.049Z,982.37
2018-12-09T03:07:49.031Z,982.25
2018-12-09T03:08:49.035Z,982.26
2018-12-09T03:09:50.006Z,982.22
2018-12-09T03:10:49.005Z,982.16
2018-12-09T03:11:48.993Z,982.16
2018-12-09T03:12:48.996Z,982.24
2018-12-09T03:13:48.976Z,982.22
2018-12-09T03:14:49.001Z,982.23
2018-12-09T03:15:49.617Z,982.23
2018-12-09T03:16:48.935Z,982.20
2018-12-09T03:17:48.928Z,982.20
2018-12-09T03:18:48.938Z,982.13
2018-12-09T03:19:48.906Z,982.15
2018-12-09T03:20:49.618Z,982.10
2018-12-09T03:21:49.611Z,982.01
2018-12-09T03:22:48.889Z,982.09
2018-12-09T03:23:48.867Z,982.14
2018-12-09T03:24:48.856Z,982.16
2018-12-09T03:25:49.651Z,982.11
2018-12-09T03:26:48.825Z,982.17
2018-12-09T03:27:48.922Z,982.13
2018-12-09T03:28:48.823Z,982.07
2018-12-09T03:29:48.809Z,982.11
2018-12-09T03:30:48.804Z,982.10
2018-12-09T03:31:48.794Z,982.16
2018-12-09T03:32:48.783Z,982.16
2018-12-09T03:33:48.754Z,982.10
2018-12-09T03:34:48.739Z,982.04
2018-12-09T03:35:48.734Z,982.02
2018-12-09T03:36:49.629Z,982.02
2018-12-09T03:37:48.718Z,982.02
2018-12-09T03:38:49.618Z,982.01
2018-12-09T03:39:48.699Z,981.98
2018-12-09T03:40:48.677Z,982.01
2018-12-09T03:41:48.687Z,982.04
2018-12-09T03:42:48.664Z,981.97
2018-12-09T03:43:48.667Z,982.07
2018-12-09T03:44:48.668Z,982.04
2018-12-09T03:45:48.630Z,982.05
2018-12-09T03:46:48.624Z,981.96
2018-12-09T03:47:48.631Z,981.95
2018-12-09T03:48:48.614Z,982.02
2018-12-09T03:49:49.153Z,981.93
2018-12-09T03:50:48.573Z,981.94
2018-12-09T03:51:48.697Z,981.91
2018-12-09T03:52:48.546Z,981.88
2018-12-09T03:53:48.554Z,981.95
2018-12-09T03:54:48.547Z,981.88
2018-12-09T03:55:48.510Z,981.87
2018-12-09T03:56:48.505Z,981.97
2018-12-09T03:57:48.504Z,981.86
2018-12-09T03:58:48.547Z,981.86
2018-12-09T03:59:48.493Z,981.83
2018-12-09T04:00:48.483Z,982.00
2018-12-09T04:01:49.122Z,981.92
2018-12-09T04:02:48.452Z,981.88
2018-12-09T04:03:48.454Z,981.90
2018-12-09T04:04:49.122Z,981.90
2018-12-09T04:05:48.425Z,981.85
2018-12-09T04:06:48.407Z,981.94
2018-12-09T04:07:48.425Z,981.96
2018-12-09T04:08:48.409Z,981.92
2018-12-09T04:09:48.367Z,981.90
2018-12-09T04:10:48.369Z,981.86
2018-12-09T04:11:48.351Z,981.96
2018-12-09T04:12:48.371Z,981.95
2018-12-09T04:13:48.347Z,981.91
2018-12-09T04:14:48.343Z,981.84
2018-12-09T04:15:49.107Z,981.88
2018-12-09T04:16:48.286Z,981.84
2018-12-09T04:17:48.288Z,981.82
2018-12-09T04:18:48.271Z,981.84
2018-12-09T04:19:48.291Z,981.83
2018-12-09T04:20:48.260Z,981.86
2018-12-09T04:21:48.233Z,981.87
2018-12-09T04:22:48.235Z,981.83
2018-12-09T04:23:48.220Z,981.82
2018-12-09T04:24:48.242Z,981.77
2018-12-09T04:25:48.215Z,981.74
2018-12-09T04:26:48.192Z,981.77
2018-12-09T04:27:48.168Z,981.68
2018-12-09T04:28:48.157Z,981.69
2018-12-09T04:29:48.188Z,981.65
2018-12-09T04:30:48.165Z,981.68
2018-12-09T04:31:48.618Z,981.75
2018-12-09T04:32:48.107Z,981.74
2018-12-09T04:33:48.115Z,981.74
2018-12-09T04:34:48.101Z,981.72
2018-12-09T04:35:48.089Z,981.66
2018-12-09T04:36:48.092Z,981.69
2018-12-09T04:37:48.069Z,981.68
2018-12-09T04:38:48.048Z,981.75
2018-12-09T04:39:48.055Z,981.62
2018-12-09T04:40:48.036Z,981.71
2018-12-09T04:41:48.024Z,981.70
2018-12-09T04:42:48.069Z,981.61
2018-12-09T04:43:48.630Z,981.63
2018-12-09T04:44:48.639Z,981.70
2018-12-09T04:45:48.017Z,981.71
2018-12-09T04:46:47.969Z,981.68
2018-12-09T04:47:47.943Z,981.73
2018-12-09T04:48:48.657Z,981.75
2018-12-09T04:49:47.937Z,981.71
2018-12-09T04:50:47.929Z,981.72
2018-12-09T04:51:47.913Z,981.76
2018-12-09T04:52:47.923Z,981.79
2018-12-09T04:53:49.813Z,981.76
2018-12-09T04:54:47.875Z,981.76
2018-12-09T04:55:47.868Z,981.79
2018-12-09T04:56:47.862Z,981.78
2018-12-09T04:57:47.957Z,981.69
2018-12-09T04:58:47.846Z,981.67
2018-12-09T04:59:47.869Z,981.84
2018-12-09T05:00:47.806Z,981.77
2018-12-09T05:01:47.797Z,981.75
2018-12-09T05:02:47.791Z,981.77
2018-12-09T05:03:47.784Z,981.76
2018-12-09T05:04:47.798Z,981.84
2018-12-09T05:05:48.635Z,981.81
2018-12-09T05:06:47.742Z,981.86
2018-12-09T05:07:47.746Z,981.86
2018-12-09T05:08:47.742Z,981.84
2018-12-09T05:09:47.708Z,981.72
2018-12-09T05:10:49.702Z,981.80
2018-12-09T05:11:47.704Z,981.81
2018-12-09T05:12:47.681Z,981.86
2018-12-09T05:13:48.629Z,981.87
2018-12-09T05:14:47.659Z,981.83
2018-12-09T05:15:47.683Z,981.85
2018-12-09T05:16:48.631Z,981.92
2018-12-09T05:17:47.624Z,981.87
2018-12-09T05:18:47.611Z,981.92
2018-12-09T05:19:48.134Z,981.94
2018-12-09T05:20:47.585Z,981.89
2018-12-09T05:21:47.604Z,981.85
2018-12-09T05:22:47.584Z,981.92
2018-12-09T05:23:48.168Z,982.00
2018-12-09T05:24:47.557Z,981.97
2018-12-09T05:25:48.642Z,982.03
2018-12-09T05:26:47.545Z,982.05
2018-12-09T05:27:47.527Z,982.01
2018-12-09T05:28:47.525Z,982.04
2018-12-09T05:29:47.548Z,981.98
2018-12-09T05:30:47.479Z,982.01
2018-12-09T05:31:47.472Z,982.01
2018-12-09T05:32:47.520Z,982.05
2018-12-09T05:33:47.447Z,981.95
2018-12-09T05:34:47.445Z,982.09
2018-12-09T05:35:49.182Z,982.02
2018-12-09T05:36:47.449Z,982.03
2018-12-09T05:37:47.412Z,982.05
2018-12-09T05:38:47.412Z,982.14
2018-12-09T05:39:47.432Z,982.04
2018-12-09T05:40:49.169Z,982.02
2018-12-09T05:41:48.366Z,982.08
2018-12-09T05:42:47.361Z,982.02
2018-12-09T05:43:47.347Z,982.15
2018-12-09T05:44:47.348Z,982.29
2018-12-09T05:45:47.327Z,982.26
2018-12-09T05:46:47.320Z,982.21
2018-12-09T05:47:47.305Z,982.25
2018-12-09T05:48:47.324Z,982.23
2018-12-09T05:49:47.284Z,982.18
2018-12-09T05:50:47.304Z,982.16
2018-12-09T05:51:47.262Z,982.23
2018-12-09T05:52:47.286Z,982.25
2018-12-09T05:53:48.164Z,982.22
2018-12-09T05:54:48.135Z,982.26
2018-12-09T05:55:47.213Z,982.26
2018-12-09T05:56:47.248Z,982.32
2018-12-09T05:57:47.208Z,982.26
2018-12-09T05:58:48.153Z,982.30
2018-12-09T05:59:47.175Z,982.29
2018-12-09T06:00:47.152Z,982.22
2018-12-09T06:01:47.176Z,982.25
2018-12-09T06:02:47.162Z,982.25
2018-12-09T06:03:47.123Z,982.23
2018-12-09T06:04:47.138Z,982.27
2018-12-09T06:05:47.118Z,982.26
2018-12-09T06:06:47.111Z,982.24
2018-12-09T06:07:47.092Z,982.30
2018-12-09T06:08:47.087Z,982.33
2018-12-09T06:09:47.065Z,982.31
2018-12-09T06:10:47.047Z,982.32
2018-12-09T06:11:47.032Z,982.32
2018-12-09T06:12:47.028Z,982.28
2018-12-09T06:13:47.033Z,982.48
2018-12-09T06:14:47.635Z,982.41
2018-12-09T06:15:46.991Z,982.31
2018-12-09T06:16:47.633Z,982.38
2018-12-09T06:17:47.969Z,982.46
2018-12-09T06:18:50.674Z,982.45
2018-12-09T06:19:48.177Z,982.54
2018-12-09T06:20:46.941Z,982.53
2018-12-09T06:21:46.931Z,982.60
2018-12-09T06:22:46.905Z,982.61
2018-12-09T06:23:46.910Z,982.65
2018-12-09T06:24:46.917Z,982.72
2018-12-09T06:25:46.903Z,982.70
2018-12-09T06:26:46.891Z,982.72
2018-12-09T06:27:47.107Z,982.73
2018-12-09T06:28:46.850Z,982.76
2018-12-09T06:29:46.849Z,982.81
2018-12-09T06:30:46.830Z,982.85
2018-12-09T06:31:46.843Z,982.81
2018-12-09T06:32:47.644Z,982.83
2018-12-09T06:33:47.811Z,982.86
2018-12-09T06:34:46.785Z,982.88
2018-12-09T06:35:46.772Z,982.95
2018-12-09T06:36:46.781Z,982.86
2018-12-09T06:37:46.750Z,982.88
2018-12-09T06:38:46.734Z,982.96
2018-12-09T06:39:46.726Z,982.93
2018-12-09T06:40:46.718Z,982.93
2018-12-09T06:41:46.705Z,982.93
2018-12-09T06:42:46.705Z,982.97
2018-12-09T06:43:46.682Z,982.98
2018-12-09T06:44:46.670Z,982.98
2018-12-09T06:45:46.658Z,982.99
2018-12-09T06:46:46.640Z,983.00
2018-12-09T06:47:46.640Z,983.01
2018-12-09T06:48:46.642Z,983.06
2018-12-09T06:49:46.649Z,983.03
2018-12-09T06:50:46.607Z,983.10
2018-12-09T06:51:46.587Z,983.08
2018-12-09T06:52:47.174Z,983.12
2018-12-09T06:53:47.573Z,983.19
2018-12-09T06:54:48.586Z,983.13
2018-12-09T06:55:47.174Z,983.17
2018-12-09T06:56:47.164Z,983.26
2018-12-09T06:57:46.535Z,983.22
2018-12-09T06:58:46.506Z,983.29
2018-12-09T06:59:46.505Z,983.28
2018-12-09T07:00:46.511Z,983.27
2018-12-09T07:01:46.481Z,983.36
2018-12-09T07:02:47.144Z,983.41
2018-12-09T07:03:46.517Z,983.40
2018-12-09T07:04:46.468Z,983.42
2018-12-09T07:05:46.449Z,983.41
2018-12-09T07:06:46.471Z,983.41
2018-12-09T07:07:46.419Z,983.42
2018-12-09T07:08:46.403Z,983.44
2018-12-09T07:09:48.168Z,983.54
2018-12-09T07:10:46.391Z,983.44
2018-12-09T07:11:46.393Z,983.58
2018-12-09T07:12:46.397Z,983.57
2018-12-09T07:13:46.360Z,983.60
2018-12-09T07:14:46.343Z,983.56
2018-12-09T07:15:46.332Z,983.60
2018-12-09T07:16:46.328Z,983.60
2018-12-09T07:17:46.314Z,983.65
2018-12-09T07:18:46.318Z,983.64
2018-12-09T07:19:46.299Z,983.68
2018-12-09T07:20:46.281Z,983.73
2018-12-09T07:21:46.446Z,983.73
2018-12-09T07:22:46.263Z,983.72
2018-12-09T07:23:46.246Z,983.77
2018-12-09T07:24:47.147Z,983.85
2018-12-09T07:25:46.222Z,983.77
2018-12-09T07:26:46.215Z,983.80
2018-12-09T07:27:46.215Z,983.87
2018-12-09T07:28:46.189Z,983.83
2018-12-09T07:29:46.182Z,983.91
2018-12-09T07:30:46.209Z,983.88
2018-12-09T07:31:46.482Z,983.93
2018-12-09T07:32:46.199Z,983.95
2018-12-09T07:33:46.143Z,983.97
2018-12-09T07:34:46.135Z,983.98
2018-12-09T07:35:46.136Z,984.01
2018-12-09T07:36:46.119Z,983.98
2018-12-09T07:37:46.152Z,984.02
2018-12-09T07:38:46.094Z,984.08
2018-12-09T07:39:46.102Z,984.09
2018-12-09T07:40:46.058Z,984.14
2018-12-09T07:41:46.069Z,984.10
2018-12-09T07:42:46.044Z,984.10
2018-12-09T07:43:46.031Z,984.13
2018-12-09T07:44:46.024Z,984.17
2018-12-09T07:45:46.002Z,984.18
2018-12-09T07:46:45.998Z,984.17
2018-12-09T07:47:46.001Z,984.15
2018-12-09T07:48:45.984Z,984.17
2018-12-09T07:49:46.281Z,984.23
2018-12-09T07:50:46.277Z,984.19
2018-12-09T07:51:46.169Z,984.19
2018-12-09T07:52:46.391Z,984.20
2018-12-09T07:53:46.235Z,984.22
2018-12-09T07:54:46.195Z,984.18
2018-12-09T07:55:46.339Z,984.22
2018-12-09T07:56:46.141Z,984.24
2018-12-09T07:57:46.210Z,984.25
2018-12-09T07:58:45.885Z,984.24
2018-12-09T07:59:45.888Z,984.22
2018-12-09T08:00:45.853Z,984.24
2018-12-09T08:01:45.838Z,984.29
2018-12-09T08:02:45.942Z,984.35
2018-12-09T08:03:45.800Z,984.38
2018-12-09T08:04:45.796Z,984.44
2018-12-09T08:05:45.812Z,984.35
2018-12-09T08:06:45.961Z,984.45
2018-12-09T08:07:45.761Z,984.48
2018-12-09T08:08:45.773Z,984.48
2018-12-09T08:09:45.830Z,984.61
2018-12-09T08:10:45.738Z,984.57
2018-12-09T08:11:45.735Z,984.57
2018-12-09T08:12:45.709Z,984.60
2018-12-09T08:13:45.955Z,984.62
2018-12-09T08:14:45.691Z,984.66
2018-12-09T08:15:45.682Z,984.70
2018-12-09T08:16:45.664Z,984.70
2018-12-09T08:17:45.667Z,984.74
2018-12-09T08:18:45.640Z,984.75
2018-12-09T08:19:45.646Z,984.78
2018-12-09T08:20:45.621Z,984.76
2018-12-09T08:21:45.608Z,984.78
2018-12-09T08:22:46.611Z,984.83
2018-12-09T08:23:45.635Z,984.86
2018-12-09T08:24:45.598Z,984.86
2018-12-09T08:25:46.562Z,984.84
2018-12-09T08:26:45.572Z,984.88
2018-12-09T08:27:45.572Z,984.89
2018-12-09T08:28:46.141Z,984.88
2018-12-09T08:29:45.523Z,984.87
2018-12-09T08:30:45.513Z,984.95
2018-12-09T08:31:45.503Z,984.90
2018-12-09T08:32:45.492Z,984.93
2018-12-09T08:33:46.492Z,984.92
2018-12-09T08:34:45.482Z,984.89
2018-12-09T08:35:45.456Z,985.00
2018-12-09T08:36:45.447Z,984.96
2018-12-09T08:37:45.430Z,984.98
2018-12-09T08:38:45.429Z,984.98
2018-12-09T08:39:49.159Z,984.94
2018-12-09T08:40:45.430Z,985.05
2018-12-09T08:41:45.389Z,985.11
2018-12-09T08:42:45.396Z,985.05
2018-12-09T08:43:45.391Z,985.10
2018-12-09T08:44:45.354Z,985.18
2018-12-09T08:45:45.359Z,985.24
2018-12-09T08:46:45.356Z,985.28
2018-12-09T08:47:45.323Z,985.19
2018-12-09T08:48:45.313Z,985.21
2018-12-09T08:49:45.306Z,985.27
2018-12-09T08:50:45.295Z,985.28
2018-12-09T08:51:45.287Z,985.32
2018-12-09T08:52:45.287Z,985.32
2018-12-09T08:53:45.260Z,985.30
2018-12-09T08:54:45.255Z,985.36
2018-12-09T08:55:45.301Z,985.39
2018-12-09T08:56:45.243Z,985.34
2018-12-09T08:57:45.216Z,985.39
2018-12-09T08:58:45.215Z,985.35
2018-12-09T08:59:45.192Z,985.41
2018-12-09T09:00:45.171Z,985.53
2018-12-09T09:01:45.172Z,985.40
2018-12-09T09:02:45.181Z,985.38
2018-12-09T09:03:45.162Z,985.43
2018-12-09T09:04:45.133Z,985.49
2018-12-09T09:05:45.143Z,985.50
2018-12-09T09:06:45.137Z,985.56
2018-12-09T09:07:45.113Z,985.58
2018-12-09T09:08:45.093Z,985.57
2018-12-09T09:09:45.088Z,985.53
2018-12-09T09:10:45.078Z,985.67
2018-12-09T09:11:45.115Z,985.66
2018-12-09T09:12:45.056Z,985.64
2018-12-09T09:13:45.418Z,985.67
2018-12-09T09:14:45.359Z,985.67
2018-12-09T09:15:45.508Z,985.73
2018-12-09T09:16:45.498Z,985.73
2018-12-09T09:17:45.436Z,985.71
2018-12-09T09:18:45.242Z,985.72
2018-12-09T09:19:45.430Z,985.75
2018-12-09T09:20:45.432Z,985.73
2018-12-09T09:21:45.387Z,985.71
2018-12-09T09:22:47.696Z,985.74
2018-12-09T09:23:45.422Z,985.77
2018-12-09T09:24:45.378Z,985.73
2018-12-09T09:25:45.402Z,985.77
2018-12-09T09:26:44.906Z,985.80
2018-12-09T09:27:44.895Z,985.87
2018-12-09T09:28:44.908Z,985.85
2018-12-09T09:29:44.874Z,985.87
2018-12-09T09:30:45.641Z,985.85
2018-12-09T09:31:44.856Z,985.88
2018-12-09T09:32:44.841Z,985.87
2018-12-09T09:33:45.027Z,985.90
2018-12-09T09:34:44.836Z,985.98
2018-12-09T09:35:44.825Z,985.95
2018-12-09T09:36:44.795Z,985.98
2018-12-09T09:37:44.777Z,986.01
2018-12-09T09:39:36.660Z,985.86
2018-12-09T09:40:36.676Z,985.94
2018-12-09T09:41:36.611Z,985.99
2018-12-09T09:42:36.601Z,985.94
2018-12-09T09:43:36.591Z,986.00
2018-12-09T09:44:36.579Z,986.05
2018-12-09T09:45:36.572Z,986.02
2018-12-09T09:46:37.480Z,985.98
2018-12-09T09:47:36.544Z,986.03
2018-12-09T09:48:36.551Z,986.04
2018-12-09T09:49:36.524Z,986.09
2018-12-09T09:50:36.525Z,986.09
2018-12-09T09:51:36.540Z,986.05
2018-12-09T09:52:36.522Z,986.04
2018-12-09T09:53:36.480Z,986.07
2018-12-09T09:54:36.491Z,986.13
2018-12-09T09:55:36.462Z,986.11
2018-12-09T09:56:36.454Z,986.15
2018-12-09T09:57:38.347Z,986.27
2018-12-09T09:58:36.445Z,986.17
2018-12-09T09:59:37.382Z,986.26
2018-12-09T10:00:36.420Z,986.24
2018-12-09T10:01:37.373Z,986.19
2018-12-09T10:02:36.401Z,986.20
2018-12-09T10:03:36.874Z,986.29
2018-12-09T10:04:37.882Z,986.24
2018-12-09T10:05:37.891Z,986.31
2018-12-09T10:06:36.355Z,986.22
2018-12-09T10:07:37.331Z,986.30
2018-12-09T10:08:37.355Z,986.24
2018-12-09T10:09:36.318Z,986.28
2018-12-09T10:10:36.879Z,986.27
2018-12-09T10:11:37.309Z,986.36
2018-12-09T10:12:36.277Z,986.27
2018-12-09T10:13:36.272Z,986.33
2018-12-09T10:14:37.355Z,986.33
2018-12-09T10:15:36.270Z,986.30
2018-12-09T10:16:37.867Z,986.33
2018-12-09T10:17:37.863Z,986.29
2018-12-09T10:18:36.244Z,986.30
2018-12-09T10:19:36.857Z,986.31
2018-12-09T10:20:36.891Z,986.31
2018-12-09T10:21:37.897Z,986.29
2018-12-09T10:22:36.172Z,986.30
2018-12-09T10:23:36.162Z,986.29
2018-12-09T10:24:36.855Z,986.29
2018-12-09T10:25:36.142Z,986.29
2018-12-09T10:26:42.892Z,986.33
2018-12-09T10:27:36.121Z,986.28
2018-12-09T10:28:36.881Z,986.25
2018-12-09T10:29:36.101Z,986.30
2018-12-09T10:30:36.854Z,986.33
2018-12-09T10:31:37.892Z,986.22
2018-12-09T10:32:36.090Z,986.22
2018-12-09T10:33:37.953Z,986.30
2018-12-09T10:34:38.832Z,986.34
2018-12-09T10:35:36.047Z,986.29
2018-12-09T10:36:37.016Z,986.28
2018-12-09T10:37:39.881Z,986.35
2018-12-09T10:38:36.020Z,986.29
2018-12-09T10:39:37.910Z,986.27
2018-12-09T10:40:35.977Z,986.31
2018-12-09T10:41:36.865Z,986.35
2018-12-09T10:42:35.970Z,986.30
2018-12-09T10:43:38.969Z,986.42
2018-12-09T10:44:35.935Z,986.42
2018-12-09T10:45:36.899Z,986.45
2018-12-09T10:46:35.946Z,986.44
2018-12-09T10:47:38.891Z,986.49
2018-12-09T10:48:36.892Z,986.41
2018-12-09T10:49:37.696Z,986.44
2018-12-09T10:50:35.873Z,986.41
2018-12-09T10:51:36.518Z,986.52
2018-12-09T10:52:35.849Z,986.49
2018-12-09T10:53:36.355Z,986.50
2018-12-09T10:54:38.388Z,986.50
2018-12-09T10:55:35.817Z,986.50
2018-12-09T10:56:35.814Z,986.53
2018-12-09T10:57:42.933Z,986.53
2018-12-09T10:58:42.945Z,986.53
2018-12-09T10:59:43.037Z,986.52
2018-12-09T11:00:40.553Z,986.53
2018-12-09T11:01:39.467Z,986.58
2018-12-09T11:02:37.528Z,986.53
2018-12-09T11:03:35.733Z,986.61
2018-12-09T11:04:44.460Z,986.53
2018-12-09T11:05:38.505Z,986.57
2018-12-09T11:06:35.713Z,986.61
2018-12-09T11:07:35.682Z,986.61
2018-12-09T11:08:36.457Z,986.64
2018-12-09T11:09:37.020Z,986.63
2018-12-09T11:10:36.651Z,986.68
2018-12-09T11:11:38.470Z,986.62
2018-12-09T11:12:37.454Z,986.64
2018-12-09T11:13:36.499Z,986.67
2018-12-09T11:14:36.465Z,986.63
2018-12-09T11:15:36.509Z,986.67
2018-12-09T11:16:36.617Z,986.70
2018-12-09T11:17:35.581Z,986.59
2018-12-09T11:18:36.469Z,986.64
2018-12-09T11:19:43.461Z,986.64
2018-12-09T11:20:37.494Z,986.58
2018-12-09T11:21:37.511Z,986.69
2018-12-09T11:22:38.963Z,986.66
2018-12-09T11:23:36.514Z,986.69
2018-12-09T11:24:38.486Z,986.69
2018-12-09T11:26:32.111Z,986.64
2018-12-09T11:27:28.096Z,986.59
2018-12-09T11:28:29.104Z,986.67
2018-12-09T11:29:27.285Z,986.68
2018-12-09T11:30:28.577Z,986.61
2018-12-09T11:31:33.147Z,986.64
2018-12-09T11:32:28.070Z,986.60
2018-12-09T11:33:29.063Z,986.61
2018-12-09T11:34:29.122Z,986.62
2018-12-09T11:35:29.098Z,986.68
2018-12-09T11:36:27.624Z,986.58
2018-12-09T11:37:29.102Z,986.63
2018-12-09T11:38:27.208Z,986.64
2018-12-09T11:39:28.074Z,986.62
2018-12-09T11:40:29.127Z,986.58
2018-12-09T11:41:27.191Z,986.54
2018-12-09T11:42:27.610Z,986.55
2018-12-09T11:43:27.141Z,986.53
2018-12-09T11:44:28.077Z,986.64
2018-12-09T11:45:30.076Z,986.58
2018-12-09T11:46:28.190Z,986.60
2018-12-09T11:47:42.607Z,986.54
2018-12-09T11:48:28.610Z,986.63
2018-12-09T11:49:28.097Z,986.60
2018-12-09T11:50:27.083Z,986.61
2018-12-09T11:51:29.055Z,986.55
2018-12-09T11:52:27.049Z,986.59
2018-12-09T11:53:28.609Z,986.55
2018-12-09T11:54:27.621Z,986.59
2018-12-09T11:55:29.621Z,986.66
2018-12-09T11:56:27.114Z,986.59
2018-12-09T11:57:26.997Z,986.62
2018-12-09T11:58:26.990Z,986.63
2018-12-09T11:59:28.626Z,986.64
2018-12-09T12:00:28.514Z,986.67
2018-12-09T12:01:26.947Z,986.61
2018-12-09T12:02:26.966Z,986.61
2018-12-09T12:03:28.616Z,986.69
2018-12-09T12:04:29.606Z,986.60
2018-12-09T12:05:27.686Z,986.65
2018-12-09T12:06:26.909Z,986.67
2018-12-09T12:07:28.648Z,986.65
2018-12-09T12:08:26.877Z,986.65
2018-12-09T12:09:26.884Z,986.65
2018-12-09T12:10:26.905Z,986.66
2018-12-09T12:11:26.848Z,986.63
2018-12-09T12:12:26.835Z,986.63
2018-12-09T12:13:26.819Z,986.66
2018-12-09T12:14:26.817Z,986.67
2018-12-09T12:15:26.811Z,986.69
2018-12-09T12:16:26.806Z,986.73
2018-12-09T12:17:26.791Z,986.72
2018-12-09T12:18:27.579Z,986.69
2018-12-09T12:19:26.764Z,986.75
2018-12-09T12:20:28.612Z,986.74
2018-12-09T12:21:26.752Z,986.79
2018-12-09T12:22:29.590Z,986.74
2018-12-09T12:23:28.609Z,986.76
2018-12-09T12:24:27.646Z,986.78
2018-12-09T12:25:29.614Z,986.77
2018-12-09T12:26:26.714Z,986.81
2018-12-09T12:27:26.702Z,986.79
2018-12-09T12:28:28.615Z,986.79
2018-12-09T12:29:27.657Z,986.82
2018-12-09T12:30:26.644Z,986.90
2018-12-09T12:31:28.619Z,986.82